Clinton, Canada
Current Conditions -  °F | °C
As of 8:38 PM on Thursday 18 Dec 2014 (Local Time) from CYIN Reporting Station
Overcast Overcast  
Wind Chill: 20°   Ceiling: 14000
Heat Index: 32°   Visibility: 9mi
Dew Point: 28°   Wind: 18mph
Humidity: 87%   Direction: 150°SSE
Pressure: 29.62"   Gusts: 26mph
Location:  51.09°N, 121.58°W
Report Text: CYIN 190438Z AUTO 15016G23KT 9SM FEW095 OVC140 00/M02 A2962 RMK SLP080
Loading
Personal Weather Stations






























Interactive Weather Map New forecast layout! Learn more

10-Day Weather Forecast

Advertisements
Track Severe Weather on mobile